Edgeley, North Dakota
Current Conditions -  °F | °C
As of 5:56 AM on Monday 24 Nov 2014 (Local Time) from KJMS Reporting Station
Unknown Precip Unknown Precip  
Wind Chill: -12°   Ceiling: 1400
Heat Index:   Visibility: 9mi
Dew Point:   Wind: 24mph
Humidity: 80%   Direction: 330°NNW
Pressure: 29.67"   Gusts: 32mph
Location:  46.36°N, 98.72°W
Report Text: KJMS 241156Z AUTO 33021G28KT 9SM UP OVC014 M13/M16 A2967 RMK AO2 PK WND 33030/1140 UPB52SNE52 SLP076 P0000 60000 T11281156 11094 21128 51012
Loading
Personal Weather Stations






























Interactive Weather Map New forecast layout! Learn more

10-Day Weather Forecast

Advertisements
Track Severe Weather on mobile